Sandown, NH (03873)

1:58 AM EST on February 12, 2016 (GMT -0500)
Misty Meadows | | Change Station
CLOSE
Current Station
Personal Weather Station
Location: Hampstead, NH
Elevation: 318 ft
Nearby Weather Stations
Active Advisory: Wind Chill Watch

Elev 318 ft 42.91 °N, 71.21 °W | Updated 15 seconds ago

Clear
Clear
5.5 °F
Feels Like 6 °F
N
1.8
Wind Variable Wind from North
Gusts 2.5 mph

Today
High -- | Low -- °F
--% Chance of Precip.
Yesterday
High -- | Low -- °F
Precip. -- in
Pressure 30.13 in
Visibility 10.0 miles
Clouds Clear
Windchill 6 °F
Dew Point -16 °F
Humidity 35%
Rainfall 0.00 in
Snow Depth Not available.
6:46 AM 5:11 PM
Waxing Crescent, 18% visible
METAR KMHT 120653Z 28007KT 10SM CLR M14/M22 A3007 RMK AO2 SLP202 T11391222
Pressure 30.13 in
Visibility 10.0 miles
Clouds Clear
Windchill 6 °F
Dew Point -16 °F
Humidity 35%
Rainfall 0.00 in
Snow Depth Not available.
6:46 AM 5:11 PM
Waxing Crescent, 18% visible
METAR KMHT 120653Z 28007KT 10SM CLR M14/M22 A3007 RMK AO2 SLP202 T11391222

10-Day Weather Forecast

Almanac

Astronomy

Feb. 12, 2016 Rise Set
Actual Time
Civil Twilight
Nautical Twilight
Astronomical Twilight
Moon
Length of Visible Light
Length of Day
Tomorrow will be .
, % of the Moon is Illuminated

Today's Extremes

State Highs State Lows

Community

WunderPhotos

Upload Photos

1,892,276 photos uploaded!

WunderBlog® & News

Nearby

Air Quality

  Air Quality AQ Index Pollutant
Not available.

Snow Depth

Station Depth Elevation

Earthquake Activity

City Distance Mag. Time & Date
Minimum magnitude displayed is 2.5.

Coastal Water Temperatures

Place Temperature

Stations

Nearby Weather Stations

Station Location Temp. Windchill Dew Point Humidity Wind Precip. Elev Updated Type
                   

Watches & Warnings

Wind Chill Watch
Issued: 6:03 PM EST Feb. 11, 2016 – National Weather Service

... Wind chill watch in effect from late Saturday night through
Sunday morning...

The National Weather Service in gray has issued a wind chill
watch... which is in effect from late Saturday night through
Sunday morning.

* Hazard types... dangerous wind chill readings.

* Wind chill... as low as 32 below due to temperatures 10 below
to 1 above zero... and winds northwest 10 to 15 mph with gusts
up to 25 mph.

* Timing... late Saturday night and Sunday morning.

* Impacts... frostbite and hypothermia if unprotected from the
cold.

* Winds... northwest 10 to 15 mph with gusts up to 25 mph.

* Temperatures... 10 below to 1 above zero.

Precautionary/preparedness actions...

A wind chill watch means the there is the potential for a
combination of very cold air and strong winds to create
dangerously low wind chill values. Monitor the latest forecasts
and warnings for updates on this situation.